Time;durP1;ratioP1;P1;durP2;ratioP2;P2;SDS_P1;SDS_P2;PMS_P1;PMS_P2;Temp;Humidity;BMP_temperature;BMP_pressure;BME280_temperature;BME280_humidity;BME280_pressure;Samples;Min_cycle;Max_cycle;Signal;HPM_P1;HPM_P2
2021/06/01 00:01:52;;;;;;;1.27;1.17;;;10.00;99.90;;;;;;5018807;28;20119;-63
2021/06/01 00:04:19;;;;;;;3.95;1.70;;;10.00;99.90;;;;;;5018993;28;20119;-63
2021/06/01 00:06:46;;;;;;;2.28;1.70;;;9.90;99.90;;;;;;5020834;28;20156;-63
2021/06/01 00:09:19;;;;;;;2.25;1.30;;;9.80;99.90;;;;;;5019689;28;20065;-63
2021/06/01 00:11:47;;;;;;;3.22;1.90;;;9.80;99.90;;;;;;5020096;28;20064;-63
2021/06/01 00:14:16;;;;;;;2.80;2.17;;;9.80;99.90;;;;;;5019653;28;20149;-63
2021/06/01 00:16:44;;;;;;;3.47;2.42;;;9.80;99.90;;;;;;5019182;28;20037;-63
2021/06/01 00:19:11;;;;;;;2.10;1.70;;;9.70;99.90;;;;;;5019413;28;20111;-63
2021/06/01 00:21:39;;;;;;;1.55;1.20;;;9.70;99.90;;;;;;5021016;28;20091;-63
2021/06/01 00:24:07;;;;;;;2.42;1.48;;;9.60;99.90;;;;;;5017968;28;20061;-63
2021/06/01 00:26:37;;;;;;;3.53;1.75;;;9.70;99.90;;;;;;5016279;28;20674;-63
2021/06/01 00:29:05;;;;;;;3.27;1.67;;;9.70;99.90;;;;;;5015990;28;20045;-63
2021/06/01 00:31:33;;;;;;;2.28;1.52;;;9.70;99.90;;;;;;5013781;28;20338;-63
2021/06/01 00:34:01;;;;;;;2.35;1.60;;;9.70;99.90;;;;;;5016478;28;20413;-63
2021/06/01 00:36:28;;;;;;;1.38;1.27;;;9.70;99.90;;;;;;5013010;28;20165;-63
2021/06/01 00:38:55;;;;;;;3.03;2.05;;;9.80;99.90;;;;;;5014664;28;20077;-63
2021/06/01 00:41:22;;;;;;;5.72;1.98;;;9.80;99.90;;;;;;5024945;28;20155;-63
2021/06/01 00:43:49;;;;;;;5.88;2.05;;;9.80;99.90;;;;;;5015980;28;20107;-62
2021/06/01 00:46:16;;;;;;;3.92;1.63;;;9.80;99.90;;;;;;5025281;28;20072;-63
2021/06/01 00:48:43;;;;;;;1.95;1.45;;;9.90;99.90;;;;;;5026388;28;20045;-63
2021/06/01 00:51:10;;;;;;;2.80;2.10;;;9.90;99.90;;;;;;5019729;28;20131;-63
2021/06/01 00:53:37;;;;;;;1.80;1.63;;;10.00;99.90;;;;;;5015075;28;20084;-63
2021/06/01 00:56:06;;;;;;;2.20;1.90;;;10.00;99.90;;;;;;5022176;28;20108;-63
2021/06/01 00:58:34;;;;;;;2.67;1.90;;;10.10;99.90;;;;;;5016239;28;20095;-63
2021/06/01 01:03:37;;;;;;;5.70;1.90;;;10.10;99.90;;;;;;5015967;28;20187;-63
2021/06/01 01:06:19;;;;;;;3.33;2.35;;;10.10;99.90;;;;;;5019322;28;20049;-63
2021/06/01 01:08:54;;;;;;;2.28;1.85;;;10.10;99.90;;;;;;5011570;28;20073;-63
2021/06/01 01:11:36;;;;;;;2.35;1.42;;;10.10;99.90;;;;;;5021729;28;20034;-63
2021/06/01 01:14:29;;;;;;;3.97;1.63;;;10.10;99.90;;;;;;5017409;28;20112;-63
2021/06/01 01:17:23;;;;;;;4.15;1.95;;;10.10;99.90;;;;;;5018007;28;20103;-63
2021/06/01 01:20:13;;;;;;;2.47;1.98;;;10.10;99.90;;;;;;5011521;28;20476;-62
2021/06/01 01:22:43;;;;;;;2.08;1.50;;;10.10;99.90;;;;;;5020211;28;20069;-63
2021/06/01 01:25:50;;;;;;;2.58;1.52;;;10.10;99.90;;;;;;5016778;28;20041;-62
2021/06/01 01:28:54;;;;;;;2.72;2.45;;;10.10;99.90;;;;;;5017993;28;20109;-62
2021/06/01 01:31:35;;;;;;;4.10;1.52;;;10.10;99.90;;;;;;5019481;28;20045;-63
2021/06/01 01:34:04;;;;;;;1.90;1.70;;;10.20;99.90;;;;;;5017988;28;20045;-62
2021/06/01 01:36:34;;;;;;;2.97;2.25;;;10.10;99.90;;;;;;5020671;28;20404;-63
2021/06/01 01:39:01;;;;;;;3.75;1.92;;;10.20;99.90;;;;;;5015707;28;20085;-63
2021/06/01 01:41:29;;;;;;;4.68;2.42;;;10.20;99.90;;;;;;5017141;28;20065;-63
2021/06/01 01:43:59;;;;;;;2.60;1.70;;;10.20;99.90;;;;;;5017938;28;20076;-63
2021/06/01 01:46:37;;;;;;;2.28;1.23;;;10.20;99.90;;;;;;5017878;28;20065;-63
2021/06/01 01:49:05;;;;;;;3.85;1.80;;;10.20;99.90;;;;;;5019615;28;20049;-63
2021/06/01 01:51:37;;;;;;;2.45;2.22;;;10.20;99.90;;;;;;5019809;28;20073;-63
2021/06/01 01:54:13;;;;;;;2.50;2.13;;;10.20;99.90;;;;;;5021294;28;20076;-63
2021/06/01 01:56:43;;;;;;;2.38;1.92;;;10.20;99.90;;;;;;5021284;28;20049;-63
2021/06/01 01:59:12;;;;;;;3.40;1.50;;;10.20;99.90;;;;;;5023062;28;20049;-63
2021/06/01 02:01:41;;;;;;;1.80;1.35;;;10.20;99.90;;;;;;5018918;28;20682;-63
2021/06/01 02:04:09;;;;;;;4.57;1.48;;;10.20;99.90;;;;;;5018449;28;20053;-63
2021/06/01 02:06:36;;;;;;;6.68;2.40;;;10.30;99.90;;;;;;5020117;28;20081;-63
2021/06/01 02:09:06;;;;;;;1.65;1.35;;;10.30;99.90;;;;;;5021938;28;20410;-63
2021/06/01 02:11:34;;;;;;;3.10;1.65;;;10.30;99.90;;;;;;5016739;28;20403;-62
2021/06/01 02:14:03;;;;;;;1.80;1.70;;;10.40;99.90;;;;;;5022062;28;20041;-63
2021/06/01 02:16:32;;;;;;;3.03;1.95;;;10.40;99.90;;;;;;5022123;28;20041;-63
2021/06/01 02:19:00;;;;;;;2.13;1.52;;;10.50;99.90;;;;;;5024393;28;20064;-63
2021/06/01 02:24:34;;;;;;;2.25;1.33;;;10.50;99.90;;;;;;5022983;28;20107;-63
2021/06/01 02:27:17;;;;;;;2.08;1.60;;;10.50;99.90;;;;;;5018358;28;20136;-63
2021/06/01 02:29:44;;;;;;;1.83;1.55;;;10.60;99.90;;;;;;5019807;28;20136;-63
2021/06/01 02:32:12;;;;;;;3.10;1.38;;;10.60;99.90;;;;;;5022435;28;20073;-63
2021/06/01 02:34:41;;;;;;;4.90;1.75;;;10.60;99.90;;;;;;5022933;28;20081;-63
2021/06/01 02:37:09;;;;;;;2.13;1.42;;;10.60;99.90;;;;;;5016195;28;20072;-63
2021/06/01 02:39:36;;;;;;;3.65;2.08;;;10.60;99.90;;;;;;5018586;28;20053;-63
2021/06/01 02:42:04;;;;;;;2.35;2.00;;;10.60;99.90;;;;;;5021202;28;20093;-63
2021/06/01 02:44:32;;;;;;;2.33;1.83;;;10.60;99.90;;;;;;5022949;28;20045;-63
2021/06/01 02:47:00;;;;;;;1.98;1.80;;;10.60;99.90;;;;;;5022564;28;20717;-63
2021/06/01 02:49:28;;;;;;;2.25;1.23;;;10.60;99.90;;;;;;5021085;28;20448;-63
2021/06/01 02:51:55;;;;;;;2.33;1.60;;;10.60;99.90;;;;;;5013367;28;20120;-63
2021/06/01 02:54:24;;;;;;;3.92;1.85;;;10.60;99.90;;;;;;5024657;28;20042;-63
2021/06/01 02:56:51;;;;;;;2.60;1.73;;;10.60;99.90;;;;;;5019235;28;20489;-63
2021/06/01 02:59:18;;;;;;;1.88;1.40;;;10.60;99.90;;;;;;5025657;28;20064;-63
2021/06/01 03:01:49;;;;;;;2.83;1.80;;;10.60;99.90;;;;;;5020453;28;20072;-63
2021/06/01 03:04:16;;;;;;;3.30;1.65;;;10.60;99.90;;;;;;5021442;28;20586;-63
2021/06/01 03:06:44;;;;;;;1.92;1.65;;;10.70;99.90;;;;;;5019333;28;20072;-62
2021/06/01 03:09:12;;;;;;;2.38;1.60;;;10.70;99.90;;;;;;5023307;28;20115;-63
2021/06/01 03:11:41;;;;;;;2.05;1.50;;;10.70;99.90;;;;;;5020176;28;20108;-63
2021/06/01 03:14:08;;;;;;;1.85;1.50;;;10.70;99.90;;;;;;5019814;28;20978;-63
2021/06/01 03:16:35;;;;;;;2.08;1.63;;;10.70;99.90;;;;;;5020401;28;20172;-63
2021/06/01 03:19:02;;;;;;;3.03;1.45;;;10.70;99.90;;;;;;5019486;28;20104;-63
2021/06/01 03:21:30;;;;;;;1.55;1.38;;;10.70;99.90;;;;;;5016108;28;20099;-62
2021/06/01 03:23:57;;;;;;;3.70;2.42;;;10.70;99.90;;;;;;5018351;28;20411;-63
2021/06/01 03:26:24;;;;;;;3.10;1.60;;;10.80;99.90;;;;;;5020567;28;20754;-63
2021/06/01 03:28:51;;;;;;;6.55;2.22;;;10.80;99.90;;;;;;5023256;28;20053;-63
2021/06/01 03:31:18;;;;;;;2.15;1.00;;;10.80;99.90;;;;;;5020193;28;20141;-62
2021/06/01 03:33:50;;;;;;;2.70;1.70;;;10.80;99.90;;;;;;5020632;28;20672;-63
2021/06/01 03:36:17;;;;;;;4.03;2.05;;;10.80;99.90;;;;;;5016189;28;20500;-63
2021/06/01 03:38:46;;;;;;;2.33;1.48;;;10.80;99.90;;;;;;5020400;28;20075;-63
2021/06/01 03:41:13;;;;;;;2.13;1.70;;;10.80;99.90;;;;;;5022554;28;20060;-62
2021/06/01 03:43:39;;;;;;;4.70;1.50;;;10.80;99.90;;;;;;5010492;28;20136;-62
2021/06/01 03:46:06;;;;;;;3.70;1.48;;;10.80;99.90;;;;;;5022501;28;20046;-62
2021/06/01 03:48:34;;;;;;;1.88;1.55;;;10.90;99.90;;;;;;5023367;28;20055;-62
2021/06/01 03:51:01;;;;;;;1.75;1.33;;;10.90;99.90;;;;;;5023159;28;20041;-63
2021/06/01 03:53:28;;;;;;;2.03;1.70;;;10.90;99.90;;;;;;5019294;28;20156;-62
2021/06/01 03:55:56;;;;;;;2.28;1.70;;;10.90;99.90;;;;;;5020393;28;21010;-62
2021/06/01 03:58:23;;;;;;;3.65;1.30;;;10.90;99.90;;;;;;5023012;28;20164;-62
2021/06/01 04:00:49;;;;;;;4.80;1.50;;;10.90;99.90;;;;;;5021800;28;20498;-63
2021/06/01 04:03:16;;;;;;;1.67;1.40;;;10.90;99.90;;;;;;5021783;28;20132;-63
2021/06/01 04:05:43;;;;;;;2.72;1.50;;;10.90;99.90;;;;;;5017760;28;20052;-63
2021/06/01 04:08:10;;;;;;;3.72;1.63;;;10.90;99.90;;;;;;5019974;28;20712;-63
2021/06/01 04:10:37;;;;;;;1.73;0.90;;;10.90;99.90;;;;;;5021592;28;20050;-63
2021/06/01 04:13:04;;;;;;;2.13;1.65;;;10.80;99.90;;;;;;5019652;28;20073;-62
2021/06/01 04:15:31;;;;;;;1.60;1.00;;;10.90;99.90;;;;;;5014427;28;20160;-62
2021/06/01 04:17:59;;;;;;;2.97;0.95;;;10.90;99.90;;;;;;5018325;28;20053;-62
2021/06/01 04:20:26;;;;;;;7.05;2.03;;;10.90;99.90;;;;;;5018762;28;20049;-63
2021/06/01 04:22:53;;;;;;;5.68;1.38;;;10.90;99.90;;;;;;5021265;28;20133;-63
2021/06/01 04:25:20;;;;;;;2.60;1.20;;;10.90;99.90;;;;;;5017851;28;20476;-63
2021/06/01 04:27:47;;;;;;;2.00;1.13;;;10.90;99.90;;;;;;5017429;28;20122;-63
2021/06/01 04:30:15;;;;;;;1.63;1.42;;;10.90;99.90;;;;;;5020320;28;20042;-62
2021/06/01 04:32:42;;;;;;;6.75;1.65;;;10.90;99.90;;;;;;5019908;28;20120;-63
2021/06/01 04:35:10;;;;;;;4.05;1.88;;;10.90;99.90;;;;;;5014514;28;20092;-63
2021/06/01 04:37:37;;;;;;;7.55;2.65;;;10.80;99.90;;;;;;5018674;28;20487;-63
2021/06/01 04:40:06;;;;;;;4.88;1.48;;;10.80;99.90;;;;;;5020338;28;20481;-62
2021/06/01 04:42:32;;;;;;;3.13;1.25;;;10.80;99.90;;;;;;5021546;28;20092;-62
2021/06/01 04:44:59;;;;;;;4.20;1.50;;;10.90;99.90;;;;;;5019565;28;20070;-62
2021/06/01 04:47:26;;;;;;;3.17;1.65;;;10.90;99.90;;;;;;5019352;28;20734;-63
2021/06/01 04:49:54;;;;;;;8.93;2.45;;;10.90;99.90;;;;;;5014231;28;20074;-63
2021/06/01 04:52:21;;;;;;;3.35;1.50;;;10.90;99.90;;;;;;5016752;28;20073;-63
2021/06/01 04:54:47;;;;;;;3.03;1.40;;;10.90;99.90;;;;;;5018651;28;20135;-63
2021/06/01 04:57:15;;;;;;;4.15;1.58;;;10.90;99.90;;;;;;5019286;28;20068;-63
2021/06/01 04:59:42;;;;;;;8.23;2.80;;;10.90;99.90;;;;;;5018012;28;20120;-63
2021/06/01 05:02:10;;;;;;;6.35;1.70;;;10.90;99.90;;;;;;5018414;28;20049;-62
2021/06/01 05:04:37;;;;;;;3.63;0.98;;;10.90;99.90;;;;;;5019434;28;20092;-63
2021/06/01 05:07:04;;;;;;;6.65;1.10;;;10.90;99.90;;;;;;5019939;28;20135;-62
2021/06/01 05:09:31;;;;;;;4.38;1.63;;;10.90;99.90;;;;;;5018273;28;20049;-63
2021/06/01 05:11:58;;;;;;;2.55;1.30;;;10.90;99.90;;;;;;5013597;28;20104;-63
2021/06/01 05:14:25;;;;;;;4.50;1.55;;;10.90;99.90;;;;;;5015383;28;20511;-62
2021/06/01 05:16:52;;;;;;;2.20;0.70;;;10.90;99.90;;;;;;5016304;28;20041;-62
2021/06/01 05:19:19;;;;;;;8.25;1.92;;;11.00;99.90;;;;;;5020320;28;20041;-64
2021/06/01 05:21:49;;;;;;;5.10;0.90;;;11.00;99.90;;;;;;380696;28;10023213;-62
2021/06/01 05:24:16;;;;;;;4.20;1.80;;;10.90;99.90;;;;;;5014369;28;20311;-62
2021/06/01 05:26:43;;;;;;;12.57;1.73;;;10.90;99.90;;;;;;5017283;28;20051;-62
2021/06/01 05:29:10;;;;;;;2.97;1.73;;;10.90;99.90;;;;;;5022803;28;20499;-62
2021/06/01 05:34:09;;;;;;;7.30;1.25;;;11.00;99.90;;;;;;5022518;28;20139;-62
2021/06/01 05:36:36;;;;;;;3.08;1.10;;;11.10;99.90;;;;;;5017259;28;20322;-62
2021/06/01 05:39:06;;;;;;;11.73;1.90;;;11.20;99.90;;;;;;5018258;28;20844;-63
2021/06/01 05:41:33;;;;;;;4.13;1.23;;;11.30;99.90;;;;;;5016831;28;20156;-62
2021/06/01 05:44:00;;;;;;;5.70;1.45;;;11.40;99.90;;;;;;5022882;28;20038;-62
2021/06/01 05:46:28;;;;;;;10.38;1.83;;;11.40;99.90;;;;;;5014292;28;20875;-62
2021/06/01 05:48:55;;;;;;;8.30;2.10;;;11.50;99.90;;;;;;5019535;28;20471;-62
2021/06/01 05:51:33;;;;;;;9.43;2.35;;;11.50;99.90;;;;;;5017880;28;20640;-63
2021/06/01 05:54:00;;;;;;;5.68;1.58;;;11.50;99.90;;;;;;5015241;28;20057;-62
2021/06/01 05:56:28;;;;;;;1.92;1.70;;;11.40;99.90;;;;;;5016676;28;20072;-62
2021/06/01 05:58:55;;;;;;;7.80;1.90;;;11.40;99.90;;;;;;5015541;28;20111;-62
2021/06/01 06:01:22;;;;;;;4.22;1.38;;;11.40;99.90;;;;;;5018055;28;20072;-62
2021/06/01 06:03:49;;;;;;;7.00;1.88;;;11.30;99.90;;;;;;5015875;28;20569;-62
2021/06/01 06:06:16;;;;;;;6.47;1.73;;;11.30;99.90;;;;;;5019897;28;20126;-62
2021/06/01 06:08:43;;;;;;;7.45;1.33;;;11.30;99.90;;;;;;5017923;28;20528;-61
2021/06/01 06:11:10;;;;;;;2.05;1.52;;;11.30;99.90;;;;;;5022691;28;20073;-61
2021/06/01 06:13:37;;;;;;;5.32;1.50;;;11.40;99.90;;;;;;5013953;28;20049;-62
2021/06/01 06:16:04;;;;;;;5.53;1.52;;;11.40;99.90;;;;;;5020699;28;20075;-62
2021/06/01 06:18:31;;;;;;;2.85;1.77;;;11.30;99.90;;;;;;5010238;28;20088;-63
2021/06/01 06:21:03;;;;;;;8.73;1.48;;;11.20;99.90;;;;;;5021030;28;20058;-64
2021/06/01 06:23:34;;;;;;;4.65;1.70;;;11.20;99.90;;;;;;5012838;28;20076;-64
2021/06/01 06:26:02;;;;;;;5.88;2.22;;;11.20;99.90;;;;;;5019893;28;21739;-63
2021/06/01 06:28:31;;;;;;;9.25;2.63;;;11.20;99.90;;;;;;5017471;28;20104;-63
2021/06/01 06:30:58;;;;;;;3.45;1.35;;;11.10;99.90;;;;;;5020574;28;20471;-63
2021/06/01 06:33:26;;;;;;;5.85;2.40;;;11.00;99.90;;;;;;5015317;28;20124;-63
2021/06/01 06:35:53;;;;;;;5.72;2.03;;;11.00;99.90;;;;;;5020471;28;20080;-63
2021/06/01 06:38:20;;;;;;;3.75;1.70;;;11.00;99.90;;;;;;5021451;28;20041;-62
2021/06/01 06:41:33;;;;;;;3.95;1.70;;;11.10;99.90;;;;;;5023384;28;20049;-63
2021/06/01 06:43:38;;;;;;;5.72;2.13;;;11.20;99.90;;;;;;5023321;28;20037;-63
2021/06/01 06:46:11;;;;;;;3.15;1.60;;;11.20;99.90;;;;;;5022597;28;20041;-63
2021/06/01 06:48:39;;;;;;;6.43;2.00;;;11.20;99.90;;;;;;5019739;28;20095;-63
2021/06/01 06:51:12;;;;;;;4.45;1.98;;;11.20;99.90;;;;;;5023912;28;20045;-63
2021/06/01 06:56:17;;;;;;;2.92;1.80;;;11.10;99.90;;;;;;5023049;28;20069;-63
2021/06/01 06:58:44;;;;;;;4.65;1.67;;;11.10;99.90;;;;;;5019276;28;20439;-63
2021/06/01 07:01:12;;;;;;;4.30;1.63;;;11.10;99.90;;;;;;5022551;28;20160;-63
2021/06/01 07:03:39;;;;;;;5.15;2.10;;;11.00;99.90;;;;;;5019295;28;21104;-63
2021/06/01 07:06:07;;;;;;;5.63;1.80;;;11.10;99.90;;;;;;5025727;28;20420;-64
2021/06/01 07:08:34;;;;;;;1.90;1.30;;;11.10;99.90;;;;;;5017698;28;20034;-63
2021/06/01 07:11:01;;;;;;;4.72;2.65;;;11.20;99.90;;;;;;5021271;28;20444;-63
2021/06/01 07:13:49;;;;;;;2.38;1.67;;;11.30;99.90;;;;;;5018237;28;20045;-63
2021/06/01 07:16:16;;;;;;;7.25;2.15;;;11.30;99.90;;;;;;5019416;28;20057;-63
2021/06/01 07:18:44;;;;;;;2.10;1.90;;;11.30;99.90;;;;;;5021073;28;21386;-64
2021/06/01 07:21:12;;;;;;;5.32;2.35;;;11.40;99.90;;;;;;5020160;28;20111;-64
2021/06/01 07:23:39;;;;;;;5.43;3.13;;;11.40;99.90;;;;;;5018496;28;20049;-63
2021/06/01 07:26:07;;;;;;;4.18;2.22;;;11.50;99.90;;;;;;5018734;28;20137;-63
2021/06/01 07:28:34;;;;;;;3.05;2.28;;;11.50;99.90;;;;;;4988021;28;20088;-63
2021/06/01 07:31:04;;;;;;;2.73;1.63;;;11.50;99.90;;;;;;1004813;28;10002822;-63
2021/06/01 07:33:31;;;;;;;7.40;3.47;;;11.50;99.90;;;;;;5020641;28;20298;-63
2021/06/01 07:35:59;;;;;;;4.53;1.80;;;11.50;99.90;;;;;;5022061;28;20069;-62
2021/06/01 07:38:26;;;;;;;6.13;2.35;;;11.50;99.90;;;;;;5019108;28;20085;-63
2021/06/01 07:40:53;;;;;;;2.88;1.60;;;11.40;99.90;;;;;;5022278;28;20107;-63
2021/06/01 07:43:20;;;;;;;5.00;2.35;;;11.50;99.90;;;;;;5019265;28;20077;-63
2021/06/01 07:45:47;;;;;;;4.57;2.00;;;11.50;99.90;;;;;;5018763;28;20164;-63
2021/06/01 07:48:14;;;;;;;7.18;1.80;;;11.60;99.90;;;;;;5018666;28;20140;-63
2021/06/01 07:50:41;;;;;;;4.45;1.70;;;11.50;99.90;;;;;;5021391;28;20049;-62
2021/06/01 07:53:07;;;;;;;3.30;2.10;;;11.60;99.90;;;;;;5020413;28;20135;-63
2021/06/01 07:55:34;;;;;;;3.78;2.50;;;11.60;99.90;;;;;;5020931;28;20053;-63
2021/06/01 07:58:01;;;;;;;3.83;1.83;;;11.70;99.90;;;;;;5017718;28;20049;-64
2021/06/01 08:00:28;;;;;;;7.07;2.88;;;11.80;99.90;;;;;;5020161;28;20053;-63
2021/06/01 08:02:55;;;;;;;6.10;1.92;;;11.80;99.90;;;;;;5021154;28;20041;-64
2021/06/01 08:05:23;;;;;;;7.22;2.38;;;11.80;99.90;;;;;;5018400;28;20061;-63
2021/06/01 08:07:50;;;;;;;5.60;2.33;;;11.80;99.90;;;;;;5019704;28;20451;-63
2021/06/01 08:10:21;;;;;;;5.03;2.00;;;11.70;99.90;;;;;;5019988;28;20115;-63
2021/06/01 08:12:49;;;;;;;4.38;1.88;;;11.80;99.90;;;;;;5023443;28;20050;-63
2021/06/01 08:15:20;;;;;;;7.13;2.60;;;11.80;99.90;;;;;;5020343;28;20795;-63
2021/06/01 08:17:48;;;;;;;4.18;2.60;;;11.80;99.90;;;;;;5021176;28;20095;-63
2021/06/01 08:20:26;;;;;;;3.15;2.67;;;11.80;99.90;;;;;;5018632;28;20053;-63
2021/06/01 08:22:54;;;;;;;4.30;2.47;;;11.80;99.90;;;;;;5019563;28;20042;-64
2021/06/01 08:25:21;;;;;;;3.13;1.63;;;11.90;99.90;;;;;;5020227;28;20049;-64
2021/06/01 08:27:48;;;;;;;6.20;2.53;;;11.90;99.90;;;;;;5022333;28;20061;-63
2021/06/01 08:30:16;;;;;;;11.77;3.20;;;11.80;99.90;;;;;;5020455;28;20045;-64
2021/06/01 08:32:43;;;;;;;6.72;2.10;;;11.90;99.90;;;;;;5023059;28;20053;-64
2021/06/01 08:35:10;;;;;;;4.82;2.17;;;11.90;99.90;;;;;;5018196;28;20157;-63
2021/06/01 08:37:39;;;;;;;6.72;1.73;;;11.90;99.90;;;;;;5018916;28;20451;-63
2021/06/01 08:40:07;;;;;;;5.68;2.83;;;11.90;99.90;;;;;;5019972;28;20066;-64
2021/06/01 08:42:36;;;;;;;4.70;2.92;;;11.90;99.90;;;;;;5019927;28;20119;-64
2021/06/01 08:45:05;;;;;;;6.32;2.25;;;12.00;99.90;;;;;;5019157;28;20095;-63
2021/06/01 08:47:32;;;;;;;6.00;3.00;;;12.00;99.90;;;;;;5019517;28;20064;-63
2021/06/01 08:50:03;;;;;;;6.30;3.33;;;12.00;99.90;;;;;;5018345;28;20057;-63
2021/06/01 08:52:30;;;;;;;;;;;12.10;99.90;;;;;;5020689;28;20119;-65
2021/06/01 08:54:58;;;;;;;4.25;3.22;;;12.10;99.90;;;;;;5022609;28;19964;-63
2021/06/01 08:57:25;;;;;;;7.15;3.20;;;12.10;99.90;;;;;;5021175;28;20466;-63
2021/06/01 08:59:53;;;;;;;5.05;2.67;;;12.10;99.90;;;;;;5018226;28;20123;-63
2021/06/01 09:02:24;;;;;;;5.47;3.83;;;12.10;99.90;;;;;;5022018;28;20096;-63
2021/06/01 09:04:58;;;;;;;4.32;2.47;;;12.00;99.90;;;;;;5019693;28;20053;-63
2021/06/01 09:10:51;;;;;;;3.47;2.67;;;12.20;99.90;;;;;;5020655;28;20176;-64
2021/06/01 09:21:31;;;;;;;5.68;3.33;;;12.30;99.90;;;;;;5018013;28;20073;-63
2021/06/01 09:24:02;;;;;;;10.57;3.20;;;12.40;99.90;;;;;;5016797;28;20411;-64
2021/06/01 09:27:02;;;;;;;5.20;3.13;;;12.40;99.90;;;;;;5016687;28;20107;-63
2021/06/01 09:29:33;;;;;;;3.85;2.10;;;12.20;99.90;;;;;;5016924;28;20111;-63
2021/06/01 09:32:04;;;;;;;7.47;3.47;;;12.30;99.90;;;;;;5018534;28;20041;-63
2021/06/01 09:34:42;;;;;;;5.13;4.05;;;12.40;99.90;;;;;;5019464;28;20164;-63
2021/06/01 09:37:30;;;;;;;10.68;3.50;;;12.30;99.90;;;;;;5016978;28;20450;-63
2021/06/01 09:40:08;;;;;;;6.20;3.28;;;12.30;99.90;;;;;;5018087;28;20095;-64
2021/06/01 09:42:38;;;;;;;6.30;3.35;;;12.40;99.90;;;;;;5019804;28;20077;-64
2021/06/01 09:45:17;;;;;;;5.32;4.22;;;12.40;99.90;;;;;;5018795;28;20136;-64
2021/06/01 09:48:11;;;;;;;10.63;5.25;;;12.50;99.90;;;;;;5014550;28;20053;-64
2021/06/01 09:53:17;;;;;;;4.63;3.58;;;12.50;99.90;;;;;;5018667;28;20462;-64
2021/06/01 09:55:49;;;;;;;6.18;3.80;;;12.50;99.90;;;;;;5015507;28;21211;-63
2021/06/01 09:58:26;;;;;;;5.43;4.20;;;12.60;99.90;;;;;;5016093;28;20073;-64
2021/06/01 10:00:54;;;;;;;8.48;4.75;;;13.00;99.90;;;;;;5017413;28;20077;-63
2021/06/01 10:03:25;;;;;;;8.32;3.78;;;13.30;99.90;;;;;;5015739;28;20575;-63
2021/06/01 10:05:55;;;;;;;11.82;4.75;;;13.30;99.90;;;;;;5018170;28;20046;-64
2021/06/01 10:08:24;;;;;;;;;;;13.30;99.90;;;;;;5017735;28;20049;-64
2021/06/01 10:11:08;;;;;;;5.72;4.53;;;13.40;99.90;;;;;;5018700;28;19967;-64
2021/06/01 10:13:38;;;;;;;5.22;3.78;;;13.50;99.90;;;;;;5016800;28;20049;-63
2021/06/01 10:16:11;;;;;;;4.63;3.90;;;13.50;99.90;;;;;;5020845;28;20049;-63
2021/06/01 10:18:40;;;;;;;5.20;3.60;;;13.30;99.90;;;;;;5019833;28;20045;-63
2021/06/01 10:21:13;;;;;;;8.32;3.90;;;13.10;99.90;;;;;;5025333;28;20056;-64
2021/06/01 10:23:43;;;;;;;6.35;4.03;;;12.90;99.90;;;;;;5018092;28;20103;-63
2021/06/01 10:26:12;;;;;;;5.47;3.03;;;12.70;99.90;;;;;;5019217;28;20142;-63
2021/06/01 10:28:43;;;;;;;5.00;3.80;;;12.70;99.90;;;;;;5017701;28;20442;-63
2021/06/01 10:31:15;;;;;;;3.92;3.50;;;12.80;99.90;;;;;;5021990;28;20075;-63
2021/06/01 10:33:55;;;;;;;6.78;3.90;;;12.70;99.90;;;;;;5020736;28;22547;-64
2021/06/01 10:53:28;;;;;;;8.63;3.80;;;12.00;99.90;;;;;;5017737;28;20037;-63
2021/06/01 10:56:06;;;;;;;7.75;4.03;;;12.10;99.90;;;;;;5021401;28;20053;-63
2021/06/01 10:58:38;;;;;;;4.88;3.63;;;12.10;99.90;;;;;;5022598;28;20099;-64
2021/06/01 11:04:20;;;;;;;7.03;3.95;;;12.20;99.90;;;;;;5017238;28;20048;-64
2021/06/01 11:06:59;;;;;;;4.45;3.80;;;12.30;99.90;;;;;;5019624;28;20038;-64
2021/06/01 11:09:36;;;;;;;8.27;3.65;;;12.30;99.90;;;;;;5018210;28;20490;-64
2021/06/01 11:12:21;;;;;;;6.85;4.13;;;12.40;99.90;;;;;;5017836;28;24991;-64
2021/06/01 11:14:50;;;;;;;8.88;4.63;;;12.40;99.90;;;;;;5017540;28;20514;-64
2021/06/01 11:17:37;;;;;;;5.05;3.33;;;12.50;99.90;;;;;;5018669;28;20154;-64
2021/06/01 11:20:13;;;;;;;4.57;3.25;;;12.50;99.90;;;;;;5019710;28;20042;-64
2021/06/01 11:33:30;;;;;;;9.35;4.63;;;13.20;99.90;;;;;;5022512;28;20045;-63
2021/06/01 11:36:17;;;;;;;6.25;3.58;;;13.10;99.90;;;;;;5024194;28;20069;-64
2021/06/01 11:38:59;;;;;;;8.45;3.70;;;12.90;99.90;;;;;;5022093;28;20065;-64
2021/06/01 11:44:00;;;;;;;3.88;3.55;;;12.60;99.90;;;;;;5018982;28;20080;-63
2021/06/01 11:46:38;;;;;;;13.55;4.53;;;12.60;99.90;;;;;;5021012;28;20061;-63
2021/06/01 11:51:51;;;;;;;5.53;4.05;;;12.40;99.90;;;;;;5018941;28;20076;-64
2021/06/01 11:54:18;;;;;;;8.48;4.28;;;12.60;99.90;;;;;;5022163;28;20444;-64
2021/06/01 12:02:22;;;;;;;8.38;4.13;;;13.10;99.90;;;;;;5018412;28;20057;-63
2021/06/01 12:18:43;;;;;;;6.43;5.30;;;13.00;99.90;;;;;;5021847;28;20046;-64
2021/06/01 12:21:21;;;;;;;7.53;4.25;;;13.00;99.90;;;;;;5016277;28;20075;-63
2021/06/01 12:23:53;;;;;;;7.97;4.13;;;13.00;99.90;;;;;;5019146;28;20155;-64
2021/06/01 12:26:31;;;;;;;5.68;4.63;;;13.00;99.90;;;;;;5019932;28;20138;-64
2021/06/01 12:31:59;;;;;;;5.45;4.68;;;13.10;99.90;;;;;;5015798;28;20089;-65
2021/06/01 12:41:41;;;;;;;7.57;4.45;;;13.10;99.90;;;;;;5018813;28;20420;-64
2021/06/01 13:20:04;;;;;;;8.07;5.15;;;13.60;99.90;;;;;;5017288;28;20081;-64
2021/06/01 13:39:10;;;;;;;6.55;5.72;;;14.80;99.90;;;;;;5015050;28;20445;-64
2021/06/01 13:47:12;;;;;;;5.20;4.65;;;15.20;99.90;;;;;;5022975;28;20052;-64
2021/06/01 13:49:53;;;;;;;16.80;5.53;;;15.40;99.90;;;;;;5019458;28;20781;-64
2021/06/01 13:55:13;;;;;;;3.55;3.25;;;15.70;99.90;;;;;;5018201;28;20042;-64
2021/06/01 14:30:00;;;;;;;7.15;2.95;;;15.50;99.90;;;;;;5016642;28;20053;-64
2021/06/01 14:38:13;;;;;;;7.38;3.35;;;15.40;99.90;;;;;;5020213;28;20600;-64
2021/06/01 15:49:32;;;;;;;2.65;2.45;;;19.40;99.90;;;;;;5016951;28;20457;-64
2021/06/01 16:14:14;;;;;;;6.13;2.72;;;17.60;99.90;;;;;;5019909;28;19925;-64
2021/06/01 16:33:30;;;;;;;3.40;2.00;;;20.30;99.90;;;;;;5020863;28;20449;-64
2021/06/01 17:06:26;;;;;;;4.25;1.50;;;20.70;96.90;;;;;;5020938;28;20057;-64
2021/06/01 17:11:32;;;;;;;3.65;2.30;;;21.00;96.30;;;;;;5018638;28;20049;-64
2021/06/01 17:14:01;;;;;;;5.50;2.17;;;21.10;96.80;;;;;;5018014;28;20067;-64
2021/06/01 17:16:43;;;;;;;5.68;2.22;;;21.30;96.80;;;;;;5014216;28;20073;-64
2021/06/01 17:35:42;;;;;;;2.50;1.48;;;21.50;95.40;;;;;;5021567;28;20065;-64
2021/06/01 17:38:10;;;;;;;3.63;1.80;;;21.50;94.80;;;;;;5016947;28;20181;-64
2021/06/01 17:40:39;;;;;;;2.97;1.65;;;21.40;94.90;;;;;;5022284;28;20127;-64
2021/06/01 17:43:08;;;;;;;2.22;1.63;;;21.40;93.70;;;;;;5016580;28;20156;-64
2021/06/01 17:45:46;;;;;;;2.35;1.45;;;21.30;93.20;;;;;;5020017;28;20456;-64
2021/06/01 17:51:13;;;;;;;4.90;2.65;;;21.20;93.10;;;;;;5008908;28;20053;-64
2021/06/01 17:53:48;;;;;;;3.35;1.10;;;21.10;93.30;;;;;;5017756;28;20053;-65
2021/06/01 17:56:21;;;;;;;6.47;2.33;;;21.20;93.40;;;;;;5020602;28;20049;-65
2021/06/01 17:58:53;;;;;;;3.30;1.50;;;21.30;92.80;;;;;;5019820;28;20521;-64
2021/06/01 18:01:22;;;;;;;3.67;1.92;;;21.20;93.10;;;;;;5019294;28;20107;-64
2021/06/01 18:06:17;;;;;;;1.83;1.40;;;20.90;93.60;;;;;;5022162;28;20095;-65
2021/06/01 19:29:44;;;;;;;3.00;2.17;;;15.90;99.90;;;;;;5017413;28;20540;-65
2021/06/01 19:51:23;;;;;;;3.58;2.15;;;14.60;99.90;;;;;;5019530;28;20125;-64
2021/06/01 19:53:50;;;;;;;13.00;3.00;;;14.50;99.90;;;;;;5020497;28;20115;-64
2021/06/01 19:56:18;;;;;;;3.33;3.03;;;14.50;99.90;;;;;;5020473;28;20586;-64
2021/06/01 19:58:47;;;;;;;3.20;2.60;;;14.40;99.90;;;;;;5021442;28;20065;-65
2021/06/01 20:01:15;;;;;;;3.65;2.92;;;14.30;99.90;;;;;;5015989;28;20084;-65
2021/06/01 20:03:42;;;;;;;3.83;2.38;;;14.20;99.90;;;;;;5016811;28;20045;-65
2021/06/01 20:06:10;;;;;;;2.50;2.30;;;14.20;99.90;;;;;;5020422;28;20534;-65
2021/06/01 20:08:41;;;;;;;5.45;3.00;;;14.00;99.90;;;;;;5019052;28;20534;-65
2021/06/01 20:11:09;;;;;;;4.68;2.63;;;13.90;99.90;;;;;;5019570;28;20124;-65
2021/06/01 20:13:37;;;;;;;4.05;2.58;;;13.80;99.90;;;;;;5014479;28;20042;-64
2021/06/01 20:16:04;;;;;;;5.35;2.83;;;13.70;99.90;;;;;;5022012;28;20108;-64
2021/06/01 20:18:36;;;;;;;5.93;2.75;;;13.60;99.90;;;;;;5016646;28;20049;-65
2021/06/01 20:21:05;;;;;;;4.47;2.75;;;13.60;99.90;;;;;;5019702;28;20049;-65
2021/06/01 20:23:49;;;;;;;4.95;2.00;;;13.50;99.90;;;;;;5016613;28;20056;-65
2021/06/01 20:26:20;;;;;;;3.70;2.88;;;13.40;99.90;;;;;;5021424;28;20107;-64
2021/06/01 20:28:52;;;;;;;6.70;3.13;;;13.30;99.90;;;;;;5019574;28;20045;-64
2021/06/01 20:31:31;;;;;;;4.80;2.42;;;13.20;99.90;;;;;;5020336;28;20064;-64
2021/06/01 20:34:03;;;;;;;6.63;3.28;;;13.10;99.90;;;;;;5016942;28;20124;-65
2021/06/01 20:36:30;;;;;;;4.82;2.95;;;13.10;99.90;;;;;;5020279;28;20046;-64